Boylston, MA (01505)

4:58 AM EST on December 18, 2014 (GMT -0500)
Timberbrook Condominiums | Change Station
CLOSE
Current Station
Personal Weather Station
Location: Boylston, MA
Elevation: 492 ft
Nearby Weather Stations

Elev 492 ft 42.34 °N, 71.74 °W | Updated 5 minutes ago

Overcast
Overcast
36.0 °F
Feels Like 36 °F
N
2.7
Wind Variable Wind from NE

Today
High -- | Low -- °F
--% Chance of Precip.
Yesterday
High -- | Low -- °F
Precip. -- in
7:11 AM 4:16 PM
Waning Crescent, 15% visible
Pressure 29.74 in
Visibility 8.0 miles
Clouds Scattered Clouds 3400 ft
Mostly Cloudy 7000 ft
Overcast 8000 ft
Windchill 36 °F
Dew Point 31 °F
Humidity 82%
Rainfall 0.00 in
Snow Depth Not available.
UV 0 out of 12
Pollen .10 out of 12
Air Quality Not available.
Flu Activity Not available.
METAR KORH 180954Z AUTO 27013G24KT 8SM -SN SCT034 BKN070 OVC080 01/M02 A2971 RMK AO2 SNB53 SLP069 P0000 T00061017

More Conditions Fewer Conditions

Pressure 29.74 in
Visibility 8.0 miles
Clouds Scattered Clouds 3400 ft
Mostly Cloudy 7000 ft
Overcast 8000 ft
Windchill 36 °F
Dew Point 31 °F
Humidity 82%
Rainfall 0.00 in
Snow Depth Not available.
UV 0 out of 12
Pollen .10 out of 12
Air Quality Not available.
Flu Activity Not available.
METAR KORH 180954Z AUTO 27013G24KT 8SM -SN SCT034 BKN070 OVC080 01/M02 A2971 RMK AO2 SNB53 SLP069 P0000 T00061017

More Conditions Fewer Conditions

10-Day Weather Forecast

Almanac

Astronomy

Dec. 18, 2014 Rise Set
Actual Time
Civil Twilight
Nautical Twilight
Astronomical Twilight
Moon
Length of Visible Light
Length of Day
Tomorrow will be .
, % of the Moon is Illuminated

Today's Extremes

State Highs State Lows

Community

WunderPhotos

Upload Photos

1,778,907 photos uploaded!

WunderBlogs® & News

Nearby

Air Quality

  Air Quality AQ Index Pollutant
Not available.

Snow Depth

Station Depth Elevation

Earthquake Activity

City Distance Mag. Time & Date
Minimum magnitude displayed is 2.5.

Coastal Water Temperatures

Place Temperature

Nearby Weather Stations